Conche, Canada
Current Conditions -  °F | °C
As of 7:16 PM on Monday 20 Oct 2014 (Local Time) from CYAY Reporting Station
Light Rain Light Rain  
Wind Chill: 34°   Ceiling: 1700
Heat Index: 45°   Visibility: 5mi
Dew Point: 41°   Wind: 38mph
Humidity: 87%   Direction: 210°SSW
Pressure: 29.04"   Gusts: 51mph
Location:  50.9°N, 55.9°W
Report Text: CYAY 202116Z AUTO 21033G44KT 5SM -RA BR OVC017 07/05 A2904 RMK SLP833 DENSITY ALT 200FT
Loading
Personal Weather Stations






























Interactive Weather Map
Tropical Storm Tracking
New forecast layout! Learn more

10-Day Weather Forecast

Advertisements
Track Severe Weather on mobile